Time;durP1;ratioP1;P1;durP2;ratioP2;P2;SDS_P1;SDS_P2;PMS_P1;PMS_P2;Temp;Humidity;BMP_temperature;BMP_pressure;BME280_temperature;BME280_humidity;BME280_pressure;Samples;Min_cycle;Max_cycle;Signal;HPM_P1;HPM_P2
2022/11/01 00:01:34;;;;;;;;;;;20.30;76.30;;;;;;4990593;28;19992;-63
2022/11/01 00:04:00;;;;;;;;;;;20.30;76.40;;;;;;4975919;28;20336;-63
2022/11/01 00:06:25;;;;;;;;;;;20.30;76.30;;;;;;4977006;28;19934;-63
2022/11/01 00:08:51;;;;;;;;;;;20.30;76.30;;;;;;4977711;28;19930;-63
2022/11/01 00:11:16;;;;;;;;;;;20.30;76.30;;;;;;4977596;28;19933;-63
2022/11/01 00:13:45;;;;;;;;;;;20.30;76.30;;;;;;4975920;28;19927;-63
2022/11/01 00:16:11;;;;;;;;;;;20.30;76.30;;;;;;4976014;28;19933;-62
2022/11/01 00:18:36;;;;;;;;;;;20.30;76.30;;;;;;4976735;28;19926;-63
2022/11/01 00:21:02;;;;;;;;;;;20.30;76.40;;;;;;4977335;28;19977;-63
2022/11/01 00:23:27;;;;;;;;;;;20.20;76.20;;;;;;4992464;28;19926;-62
2022/11/01 00:25:53;;;;;;;;;;;20.30;76.30;;;;;;4991734;28;19949;-63
2022/11/01 00:28:18;;;;;;;;;;;20.30;76.20;;;;;;4977682;28;19972;-62
2022/11/01 00:30:44;;;;;;;;;;;20.30;76.30;;;;;;4976880;28;19929;-63
2022/11/01 00:33:09;;;;;;;;;;;20.30;76.30;;;;;;4976532;28;19926;-63
2022/11/01 00:35:35;;;;;;;;;;;20.30;76.20;;;;;;4977319;28;20291;-63
2022/11/01 00:38:01;;;;;;;;;;;20.20;76.20;;;;;;4976725;28;20392;-63
2022/11/01 00:40:27;;;;;;;;;;;20.20;76.10;;;;;;4976401;28;19926;-63
2022/11/01 00:42:52;;;;;;;;;;;20.20;76.10;;;;;;4976937;28;20390;-63
2022/11/01 00:45:18;;;;;;;;;;;20.20;76.10;;;;;;4977023;28;20393;-63
2022/11/01 00:47:46;;;;;;;;;;;20.20;76.10;;;;;;4976186;28;19933;-63
2022/11/01 00:50:12;;;;;;;;;;;20.20;76.20;;;;;;4976957;28;19926;-63
2022/11/01 00:52:37;;;;;;;;;;;20.20;76.20;;;;;;4975143;28;20386;-62
2022/11/01 00:55:03;;;;;;;;;;;20.20;76.10;;;;;;4976228;28;19981;-62
2022/11/01 00:57:28;;;;;;;;;;;20.20;76.20;;;;;;4975645;28;20298;-63
2022/11/01 00:59:54;;;;;;;;;;;20.20;76.10;;;;;;4976634;28;19925;-63
2022/11/01 01:02:19;;;;;;;;;;;20.20;76.10;;;;;;4976097;28;19926;-63
2022/11/01 01:04:45;;;;;;;;;;;20.20;76.10;;;;;;4976604;28;19930;-63
2022/11/01 01:07:10;;;;;;;;;;;20.20;76.10;;;;;;4976334;28;19922;-63
2022/11/01 01:09:36;;;;;;;;;;;20.20;76.10;;;;;;4976086;28;20090;-63
2022/11/01 01:12:01;;;;;;;;;;;20.20;76.00;;;;;;4975970;28;19977;-63
2022/11/01 01:14:27;;;;;;;;;;;20.20;76.00;;;;;;4976244;28;20012;-63
2022/11/01 01:16:55;;;;;;;;;;;20.20;76.00;;;;;;4975622;28;19926;-63
2022/11/01 01:19:21;;;;;;;;;;;20.10;76.00;;;;;;4976371;28;19926;-63
2022/11/01 01:21:46;;;;;;;;;;;20.20;76.00;;;;;;4975623;28;19937;-63
2022/11/01 01:24:12;;;;;;;;;;;20.20;75.90;;;;;;4976638;28;19926;-62
2022/11/01 01:26:37;;;;;;;;;;;20.10;75.80;;;;;;4976263;28;20016;-63
2022/11/01 01:29:03;;;;;;;;;;;20.10;75.80;;;;;;4975385;28;20781;-63
2022/11/01 01:31:28;;;;;;;;;;;20.10;75.80;;;;;;4976313;28;19933;-63
2022/11/01 01:34:00;;;;;;;;;;;20.10;75.90;;;;;;4974669;28;20293;-63
2022/11/01 01:36:26;;;;;;;;;;;20.10;75.80;;;;;;4975442;28;19926;-63
2022/11/01 01:38:52;;;;;;;;;;;20.10;75.80;;;;;;4975388;28;20021;-63
2022/11/01 01:44:22;;;;;;;;;;;20.10;75.70;;;;;;4975125;28;20297;-64
2022/11/01 01:46:47;;;;;;;;;;;20.10;75.70;;;;;;4974254;28;20009;-63
2022/11/01 01:49:13;;;;;;;;;;;20.10;75.60;;;;;;4974824;28;20013;-63
2022/11/01 01:51:38;;;;;;;;;;;20.10;75.70;;;;;;4958113;28;19926;-63
2022/11/01 01:54:03;;;;;;;;;;;20.10;75.60;;;;;;4974190;28;19969;-63
2022/11/01 01:56:31;;;;;;;;;;;20.10;75.60;;;;;;4975431;28;19988;-63
2022/11/01 01:59:04;;;;;;;;;;;20.10;75.60;;;;;;4973846;28;19930;-63
2022/11/01 02:01:30;;;;;;;;;;;20.10;75.50;;;;;;4974418;28;20358;-63
2022/11/01 02:03:55;;;;;;;;;;;20.10;75.50;;;;;;4974639;28;19981;-63
2022/11/01 02:06:21;;;;;;;;;;;20.10;75.50;;;;;;4975835;28;19934;-63
2022/11/01 02:08:48;;;;;;;;;;;20.10;75.50;;;;;;4973946;28;19965;-63
2022/11/01 02:11:13;;;;;;;;;;;20.10;75.50;;;;;;4973585;28;19937;-64
2022/11/01 02:13:39;;;;;;;;;;;20.10;75.40;;;;;;4975282;28;19926;-62
2022/11/01 02:16:04;;;;;;;;;;;20.10;75.50;;;;;;4975225;28;19930;-62
2022/11/01 02:18:33;;;;;;;;;;;20.10;75.50;;;;;;4974801;28;20386;-63
2022/11/01 02:21:17;;;;;;;;;;;20.10;75.50;;;;;;4975235;28;19926;-62
2022/11/01 02:24:06;;;;;;;;;;;20.10;75.40;;;;;;4974503;28;20005;-63
2022/11/01 02:26:44;;;;;;;;;;;20.00;75.40;;;;;;4973448;28;20405;-62
2022/11/01 02:29:22;;;;;;;;;;;20.10;75.50;;;;;;4975304;28;20029;-62
2022/11/01 02:32:06;;;;;;;;;;;20.10;75.30;;;;;;4974671;28;19989;-63
2022/11/01 02:34:35;;;;;;;;;;;20.00;75.30;;;;;;4973829;28;19930;-63
2022/11/01 02:37:04;;;;;;;;;;;20.00;75.30;;;;;;4974996;28;19949;-63
2022/11/01 02:39:31;;;;;;;;;;;20.00;75.30;;;;;;4973294;28;19977;-63
2022/11/01 02:42:10;;;;;;;;;;;20.00;75.40;;;;;;4973586;28;20385;-63
2022/11/01 02:44:40;;;;;;;;;;;20.00;75.30;;;;;;4973918;28;19930;-63
2022/11/01 02:47:06;;;;;;;;;;;20.00;75.20;;;;;;4956435;28;20281;-62
2022/11/01 02:49:36;;;;;;;;;;;20.00;75.20;;;;;;4974988;28;20014;-62
2022/11/01 02:52:01;;;;;;;;;;;20.00;75.20;;;;;;4972934;28;19934;-63
2022/11/01 02:54:30;;;;;;;;;;;20.00;75.20;;;;;;4973158;28;19927;-63
2022/11/01 02:56:57;;;;;;;;;;;20.00;75.30;;;;;;4973300;28;20391;-63
2022/11/01 02:59:23;;;;;;;;;;;20.00;75.20;;;;;;4956979;28;19930;-63
2022/11/01 03:01:52;;;;;;;;;;;20.00;75.20;;;;;;4973252;28;19926;-61
2022/11/01 03:04:17;;;;;;;;;;;20.00;75.10;;;;;;4957015;28;19930;-61
2022/11/01 03:06:45;;;;;;;;;;;20.00;75.20;;;;;;4973330;28;19940;-61
2022/11/01 03:09:11;;;;;;;;;;;20.00;75.80;;;;;;4972329;28;19926;-63
2022/11/01 03:11:39;;;;;;;;;;;20.00;75.20;;;;;;4974772;28;19927;-63
2022/11/01 03:14:23;;;;;;;;;;;20.00;75.20;;;;;;4973889;28;19926;-63
2022/11/01 03:16:55;;;;;;;;;;;20.00;75.20;;;;;;4974033;28;20419;-63
2022/11/01 03:19:27;;;;;;;;;;;20.00;75.20;;;;;;4973592;28;19962;-63
2022/11/01 03:22:01;;;;;;;;;;;20.00;75.20;;;;;;4973592;28;19933;-63
2022/11/01 03:24:28;;;;;;;;;;;20.00;75.20;;;;;;4972812;28;19926;-63
2022/11/01 03:26:56;;;;;;;;;;;20.00;75.20;;;;;;4972758;28;19926;-64
2022/11/01 03:29:22;;;;;;;;;;;20.00;75.10;;;;;;4972865;28;19927;-64
2022/11/01 03:31:48;;;;;;;;;;;20.00;75.10;;;;;;4973990;28;19933;-63
2022/11/01 03:34:14;;;;;;;;;;;20.00;75.10;;;;;;4972959;28;19976;-63
2022/11/01 03:36:41;;;;;;;;;;;20.00;75.10;;;;;;4972027;28;19933;-63
2022/11/01 03:39:12;;;;;;;;;;;20.00;75.10;;;;;;4956578;28;20389;-64
2022/11/01 03:41:39;;;;;;;;;;;20.00;75.10;;;;;;4956546;28;20496;-63
2022/11/01 03:44:04;;;;;;;;;;;20.00;75.10;;;;;;4972208;28;20400;-63
2022/11/01 03:46:30;;;;;;;;;;;19.90;75.10;;;;;;4956691;28;19926;-63
2022/11/01 03:48:56;;;;;;;;;;;19.90;75.00;;;;;;4972362;28;19980;-63
2022/11/01 03:51:21;;;;;;;;;;;19.90;75.00;;;;;;4973182;28;20405;-64
2022/11/01 03:53:46;;;;;;;;;;;19.90;75.00;;;;;;4973689;28;19926;-63
2022/11/01 03:56:13;;;;;;;;;;;20.00;75.00;;;;;;4973621;28;20070;-63
2022/11/01 03:58:42;;;;;;;;;;;19.90;75.00;;;;;;4972448;28;19988;-63
2022/11/01 04:01:12;;;;;;;;;;;19.90;75.00;;;;;;4974245;28;20009;-63
2022/11/01 04:03:37;;;;;;;;;;;19.90;75.00;;;;;;4971896;28;19929;-64
2022/11/01 04:06:03;;;;;;;;;;;19.90;74.90;;;;;;4973358;28;19937;-64
2022/11/01 04:08:29;;;;;;;;;;;19.90;75.00;;;;;;4973659;28;20337;-64
2022/11/01 04:10:54;;;;;;;;;;;19.90;75.00;;;;;;4971695;28;19926;-63
2022/11/01 04:13:20;;;;;;;;;;;19.90;75.00;;;;;;4972736;28;19922;-63
2022/11/01 04:21:22;;;;;;;;;;;19.90;75.00;;;;;;4974100;28;20356;-63
2022/11/01 04:23:51;;;;;;;;;;;19.90;74.90;;;;;;4973513;28;19933;-64
2022/11/01 04:26:17;;;;;;;;;;;19.90;74.90;;;;;;4973231;28;20025;-64
2022/11/01 04:28:55;;;;;;;;;;;19.90;74.90;;;;;;4972045;28;20020;-64
2022/11/01 04:31:23;;;;;;;;;;;19.90;74.80;;;;;;4973549;28;19930;-62
2022/11/01 04:33:49;;;;;;;;;;;19.90;74.80;;;;;;4971414;28;19926;-63
2022/11/01 04:36:17;;;;;;;;;;;19.90;74.80;;;;;;4973881;28;19926;-63
2022/11/01 04:38:43;;;;;;;;;;;19.90;74.80;;;;;;4987661;28;19930;-63
2022/11/01 04:41:08;;;;;;;;;;;19.90;74.80;;;;;;4972271;28;19926;-63
2022/11/01 04:43:34;;;;;;;;;;;19.90;74.90;;;;;;4973353;28;19926;-63
2022/11/01 04:45:59;;;;;;;;;;;19.90;74.90;;;;;;4972503;28;19937;-63
2022/11/01 04:48:26;;;;;;;;;;;19.90;74.80;;;;;;4976024;28;19985;-63
2022/11/01 04:50:51;;;;;;;;;;;19.90;74.90;;;;;;4976687;28;20270;-63
2022/11/01 04:53:17;;;;;;;;;;;19.90;74.80;;;;;;4976165;28;19929;-63
2022/11/01 04:55:45;;;;;;;;;;;19.90;74.80;;;;;;4976809;28;19982;-63
2022/11/01 04:58:11;;;;;;;;;;;19.90;74.90;;;;;;4976653;28;19974;-64
2022/11/01 05:00:36;;;;;;;;;;;19.90;74.90;;;;;;4976004;28;19930;-63
2022/11/01 05:03:02;;;;;;;;;;;19.90;74.80;;;;;;4967806;28;20172;-64
2022/11/01 05:05:28;;;;;;;;;;;19.80;74.80;;;;;;4956321;28;19927;-63
2022/11/01 05:08:03;;;;;;;;;;;19.90;74.80;;;;;;4956360;28;19933;-63
2022/11/01 05:10:29;;;;;;;;;;;19.90;74.90;;;;;;4955998;28;19926;-63
2022/11/01 05:12:55;;;;;;;;;;;19.80;74.80;;;;;;4956987;28;19927;-63
2022/11/01 05:15:20;;;;;;;;;;;19.90;74.90;;;;;;4971357;28;20010;-64
2022/11/01 05:17:49;;;;;;;;;;;19.80;74.80;;;;;;4957044;28;19931;-63
2022/11/01 05:20:14;;;;;;;;;;;19.80;74.90;;;;;;4956946;28;19973;-63
2022/11/01 05:22:40;;;;;;;;;;;19.80;74.80;;;;;;4955628;28;19926;-63
2022/11/01 05:25:23;;;;;;;;;;;19.80;74.70;;;;;;4957081;28;20382;-63
2022/11/01 05:27:49;;;;;;;;;;;19.80;74.80;;;;;;4956795;28;19933;-63
2022/11/01 05:30:14;;;;;;;;;;;19.80;74.80;;;;;;4956526;28;19933;-63
2022/11/01 05:32:40;;;;;;;;;;;19.80;74.80;;;;;;4955598;28;20337;-63
2022/11/01 05:35:05;;;;;;;;;;;19.80;74.80;;;;;;4956030;28;19930;-63
2022/11/01 05:37:31;;;;;;;;;;;19.80;74.80;;;;;;4956680;28;19926;-63
2022/11/01 05:39:56;;;;;;;;;;;19.80;74.80;;;;;;4956360;28;20005;-62
2022/11/01 05:42:25;;;;;;;;;;;19.80;74.80;;;;;;4956054;28;19927;-63
2022/11/01 05:44:52;;;;;;;;;;;19.80;74.80;;;;;;4956524;28;19934;-63
2022/11/01 05:47:24;;;;;;;;;;;19.80;74.80;;;;;;4956535;28;19927;-63
2022/11/01 05:49:52;;;;;;;;;;;19.80;74.80;;;;;;4955668;28;20370;-62
2022/11/01 05:52:17;;;;;;;;;;;19.80;74.80;;;;;;4956498;28;20369;-63
2022/11/01 05:54:43;;;;;;;;;;;19.80;74.80;;;;;;4956119;28;19937;-62
2022/11/01 05:57:08;;;;;;;;;;;19.80;74.80;;;;;;4956177;28;19934;-63
2022/11/01 05:59:34;;;;;;;;;;;19.80;74.80;;;;;;4956491;28;19962;-63
2022/11/01 06:01:59;;;;;;;;;;;19.80;74.80;;;;;;4955879;28;20323;-63
2022/11/01 06:04:28;;;;;;;;;;;19.80;74.80;;;;;;4970526;28;19937;-63
2022/11/01 06:06:53;;;;;;;;;;;19.80;74.80;;;;;;4955850;28;20382;-63
2022/11/01 06:09:19;;;;;;;;;;;19.80;74.80;;;;;;4956039;28;19933;-63
2022/11/01 06:11:44;;;;;;;;;;;19.80;74.70;;;;;;4955582;28;19973;-63
2022/11/01 06:14:10;;;;;;;;;;;19.80;74.70;;;;;;4956294;28;19927;-62
2022/11/01 06:16:36;;;;;;;;;;;19.80;74.70;;;;;;4955819;28;19961;-63
2022/11/01 06:19:01;;;;;;;;;;;19.80;74.70;;;;;;4955144;28;19960;-63
2022/11/01 06:21:27;;;;;;;;;;;19.80;74.70;;;;;;4956203;28;19927;-63
2022/11/01 06:23:52;;;;;;;;;;;19.80;74.70;;;;;;4954254;28;19926;-63
2022/11/01 06:26:18;;;;;;;;;;;19.80;74.70;;;;;;4955659;28;19926;-63
2022/11/01 06:28:44;;;;;;;;;;;19.80;74.70;;;;;;4955675;28;19931;-63
2022/11/01 06:31:10;;;;;;;;;;;19.80;74.70;;;;;;4955513;28;19927;-63
2022/11/01 06:33:36;;;;;;;;;;;19.80;74.70;;;;;;4970609;28;19937;-63
2022/11/01 06:36:01;;;;;;;;;;;19.80;74.60;;;;;;4953909;28;19927;-63
2022/11/01 06:38:27;;;;;;;;;;;19.80;74.60;;;;;;4954862;28;19927;-63
2022/11/01 06:40:52;;;;;;;;;;;19.90;74.60;;;;;;4955529;28;19931;-63
2022/11/01 06:43:17;;;;;;;;;;;19.90;74.60;;;;;;4954653;28;19978;-63
2022/11/01 06:45:43;;;;;;;;;;;19.90;74.50;;;;;;4954656;28;20275;-62
2022/11/01 06:48:09;;;;;;;;;;;19.90;74.40;;;;;;4955489;28;19974;-63
2022/11/01 06:50:34;;;;;;;;;;;19.90;74.50;;;;;;4955064;28;19926;-63
2022/11/01 06:53:02;;;;;;;;;;;19.90;74.40;;;;;;4954287;28;19989;-63
2022/11/01 06:55:27;;;;;;;;;;;19.90;74.30;;;;;;4955615;28;19926;-63
2022/11/01 06:57:54;;;;;;;;;;;19.90;74.20;;;;;;4953592;28;19932;-63
2022/11/01 07:00:19;;;;;;;;;;;19.90;74.20;;;;;;4955073;28;19969;-63
2022/11/01 07:02:45;;;;;;;;;;;20.00;74.20;;;;;;4969758;28;19937;-72
2022/11/01 07:05:10;;;;;;;;;;;20.00;74.20;;;;;;4955051;28;19934;-64
2022/11/01 07:07:35;;;;;;;;;;;20.00;74.10;;;;;;4954956;28;19936;-63
2022/11/01 07:10:01;;;;;;;;;;;20.00;73.90;;;;;;4953572;28;19961;-62
2022/11/01 07:12:26;;;;;;;;;;;20.00;74.00;;;;;;4954944;28;19953;-64
2022/11/01 07:14:58;;;;;;;;;;;20.00;73.90;;;;;;4954433;28;19934;-64
2022/11/01 07:17:23;;;;;;;;;;;20.00;73.90;;;;;;4953599;28;19950;-63
2022/11/01 07:19:49;;;;;;;;;;;20.00;74.00;;;;;;4954685;28;19923;-64
2022/11/01 07:22:14;;;;;;;;;;;20.00;73.90;;;;;;4954656;28;20057;-63
2022/11/01 07:24:40;;;;;;;;;;;20.10;74.10;;;;;;4954028;28;19926;-63
2022/11/01 07:27:05;;;;;;;;;;;20.10;74.10;;;;;;4954724;28;19926;-62
2022/11/01 07:29:31;;;;;;;;;;;20.10;74.10;;;;;;4954645;28;19926;-63
2022/11/01 07:31:56;;;;;;;;;;;20.10;74.10;;;;;;4954713;28;20294;-62
2022/11/01 07:34:22;;;;;;;;;;;20.10;74.10;;;;;;4969583;28;19929;-62
2022/11/01 07:36:50;;;;;;;;;;;20.10;74.10;;;;;;4954247;28;19934;-62
2022/11/01 07:39:16;;;;;;;;;;;20.10;74.10;;;;;;4983772;28;19936;-62
2022/11/01 07:41:41;;;;;;;;;;;20.10;74.10;;;;;;4992710;28;19925;-62
2022/11/01 07:44:07;;;;;;;;;;;20.10;74.10;;;;;;4993472;28;20012;-62
2022/11/01 07:46:32;;;;;;;;;;;20.10;74.10;;;;;;4993461;28;20369;-62
2022/11/01 07:48:59;;;;;;;;;;;20.10;74.10;;;;;;4992455;28;20273;-63
2022/11/01 07:51:24;;;;;;;;;;;20.20;74.10;;;;;;4993655;28;19926;-62
2022/11/01 07:53:50;;;;;;;;;;;20.20;74.30;;;;;;4992752;28;19930;-64
2022/11/01 07:56:15;;;;;;;;;;;20.20;74.10;;;;;;4992985;28;20351;-63
2022/11/01 07:58:42;;;;;;;;;;;20.20;74.10;;;;;;4993484;28;19933;-65
2022/11/01 08:01:08;;;;;;;;;;;20.20;74.00;;;;;;4993004;28;20009;-63
2022/11/01 08:03:34;;;;;;;;;;;20.20;74.10;;;;;;4992393;28;19926;-64
2022/11/01 08:06:02;;;;;;;;;;;20.20;74.10;;;;;;4993078;28;20024;-64
2022/11/01 08:08:28;;;;;;;;;;;20.20;74.00;;;;;;4993115;28;19922;-64
2022/11/01 08:10:56;;;;;;;;;;;20.30;74.00;;;;;;4973216;28;20346;-62
2022/11/01 08:13:22;;;;;;;;;;;20.30;74.00;;;;;;4973935;28;19926;-62
2022/11/01 08:15:50;;;;;;;;;;;20.30;73.90;;;;;;4973351;28;20341;-62
2022/11/01 08:18:16;;;;;;;;;;;20.30;74.00;;;;;;4972256;28;20137;-61
2022/11/01 08:20:42;;;;;;;;;;;20.30;73.80;;;;;;4974102;28;20348;-62
2022/11/01 08:23:08;;;;;;;;;;;20.40;73.80;;;;;;4975990;28;20021;-62
2022/11/01 08:25:33;;;;;;;;;;;20.40;73.70;;;;;;4977208;28;20020;-63
2022/11/01 08:28:06;;;;;;;;;;;20.40;73.60;;;;;;4977327;28;19922;-63
2022/11/01 08:30:31;;;;;;;;;;;20.40;73.60;;;;;;4975646;28;19926;-63
2022/11/01 08:32:58;;;;;;;;;;;20.40;73.50;;;;;;4976802;28;19926;-62
2022/11/01 08:35:23;;;;;;;;;;;20.40;73.50;;;;;;4976113;28;20441;-61
2022/11/01 08:37:51;;;;;;;;;;;20.50;73.50;;;;;;4976512;28;19926;-63
2022/11/01 08:40:17;;;;;;;;;;;20.50;73.40;;;;;;4976888;28;19926;-63
2022/11/01 08:42:43;;;;;;;;;;;20.50;73.40;;;;;;4976719;28;20338;-63
2022/11/01 08:45:09;;;;;;;;;;;20.50;73.30;;;;;;4975417;28;19937;-63
2022/11/01 08:47:34;;;;;;;;;;;20.50;73.20;;;;;;4977258;28;19930;-63
2022/11/01 08:50:00;;;;;;;;;;;20.50;73.20;;;;;;4976470;28;19933;-65
2022/11/01 08:52:26;;;;;;;;;;;20.50;73.20;;;;;;4975418;28;19950;-63
2022/11/01 08:54:52;;;;;;;;;;;20.60;73.20;;;;;;4976624;28;19937;-63
2022/11/01 08:57:21;;;;;;;;;;;20.60;73.20;;;;;;4976850;28;19926;-64
2022/11/01 08:59:46;;;;;;;;;;;20.60;73.10;;;;;;4976172;28;19929;-64
2022/11/01 09:02:12;;;;;;;;;;;20.60;73.00;;;;;;4977066;28;19949;-64
2022/11/01 09:04:38;;;;;;;;;;;20.60;72.90;;;;;;4975061;28;19931;-64
2022/11/01 09:07:03;;;;;;;;;;;20.60;72.90;;;;;;4976161;28;19930;-63
2022/11/01 09:09:28;;;;;;;;;;;20.60;72.80;;;;;;4976378;28;19981;-64
2022/11/01 09:11:57;;;;;;;;;;;20.60;72.80;;;;;;4976269;28;19926;-64
2022/11/01 09:14:23;;;;;;;;;;;20.60;72.80;;;;;;4974710;28;20389;-64
2022/11/01 09:16:49;;;;;;;;;;;20.60;72.70;;;;;;4976475;28;19926;-64
2022/11/01 09:19:15;;;;;;;;;;;20.70;72.70;;;;;;4974201;28;19981;-65
2022/11/01 09:21:43;;;;;;;;;;;20.60;72.70;;;;;;4975825;28;19996;-66
2022/11/01 09:24:09;;;;;;;;;;;20.70;72.60;;;;;;4976791;28;20013;-66
2022/11/01 09:26:35;;;;;;;;;;;20.70;72.40;;;;;;4991281;28;20437;-66
2022/11/01 09:29:00;;;;;;;;;;;20.70;72.30;;;;;;4975556;28;19985;-66
2022/11/01 09:31:27;;;;;;;;;;;20.70;72.20;;;;;;4991175;28;19930;-65
2022/11/01 09:33:56;;;;;;;;;;;20.70;72.20;;;;;;4975368;28;19926;-65
2022/11/01 09:36:22;;;;;;;;;;;20.70;71.90;;;;;;4975661;28;19926;-65
2022/11/01 09:38:47;;;;;;;;;;;20.70;71.90;;;;;;4975962;28;19994;-65
2022/11/01 09:41:23;;;;;;;;;;;20.60;71.80;;;;;;4975873;28;19930;-66
2022/11/01 09:43:49;;;;;;;;;;;20.60;71.80;;;;;;4975800;28;20369;-64
2022/11/01 09:46:16;;;;;;;;;;;20.60;71.90;;;;;;4976009;28;20397;-65
2022/11/01 09:48:42;;;;;;;;;;;20.60;71.80;;;;;;4974437;28;20377;-65
2022/11/01 09:51:10;;;;;;;;;;;20.60;71.70;;;;;;4958794;28;19986;-65
2022/11/01 09:53:35;;;;;;;;;;;20.60;71.50;;;;;;4974417;28;19973;-64
2022/11/01 09:56:04;;;;;;;;;;;20.60;71.50;;;;;;4989801;28;20005;-64
2022/11/01 09:58:33;;;;;;;;;;;20.60;71.80;;;;;;4974586;28;19943;-64
2022/11/01 10:01:10;;;;;;;;;;;20.60;71.90;;;;;;4973929;28;19933;-64
2022/11/01 10:03:42;;;;;;;;;;;20.60;72.10;;;;;;4975363;28;19933;-64
2022/11/01 10:06:16;;;;;;;;;;;20.60;72.20;;;;;;4974285;28;19926;-65
2022/11/01 10:08:46;;;;;;;;;;;20.60;72.50;;;;;;4975281;28;19926;-65
2022/11/01 10:11:31;;;;;;;;;;;20.60;72.70;;;;;;4974098;28;19988;-64
2022/11/01 10:14:23;;;;;;;;;;;20.60;72.90;;;;;;4973739;28;19984;-64
2022/11/01 10:17:04;;;;;;;;;;;20.60;73.00;;;;;;4957615;28;19926;-64
2022/11/01 10:19:32;;;;;;;;;;;20.60;73.20;;;;;;4973865;28;19981;-64
2022/11/01 10:22:00;;;;;;;;;;;20.60;73.30;;;;;;4973688;28;19930;-72
2022/11/01 10:24:34;;;;;;;;;;;20.60;73.40;;;;;;4989548;28;19926;-64
2022/11/01 10:27:03;;;;;;;;;;;20.60;72.80;;;;;;4973360;28;19976;-65
2022/11/01 10:29:33;;;;;;;;;;;20.60;72.40;;;;;;4974742;28;20376;-65
2022/11/01 10:31:59;;;;;;;;;;;20.50;72.00;;;;;;4989304;28;19926;-66
2022/11/01 10:34:25;;;;;;;;;;;20.50;72.00;;;;;;4975309;28;20016;-65
2022/11/01 10:36:51;;;;;;;;;;;20.50;71.90;;;;;;4974518;28;19932;-65
2022/11/01 10:39:20;;;;;;;;;;;20.50;71.90;;;;;;4989517;28;19930;-65
2022/11/01 10:41:51;;;;;;;;;;;20.50;71.80;;;;;;4989901;28;19977;-65
2022/11/01 10:44:27;;;;;;;;;;;20.50;71.90;;;;;;4974708;28;19980;-65
2022/11/01 10:46:56;;;;;;;;;;;20.50;71.80;;;;;;4989395;28;19929;-65
2022/11/01 10:49:22;;;;;;;;;;;20.40;71.70;;;;;;4989563;28;19926;-65
2022/11/01 10:51:52;;;;;;;;;;;20.40;71.70;;;;;;4988948;28;19926;-65
2022/11/01 10:54:19;;;;;;;;;;;20.40;71.70;;;;;;4973383;28;19930;-65
2022/11/01 10:56:45;;;;;;;;;;;20.50;71.80;;;;;;4974587;28;19925;-66
2022/11/01 10:59:14;;;;;;;;;;;20.40;71.60;;;;;;4973305;28;19926;-65
2022/11/01 11:01:41;;;;;;;;;;;20.40;71.60;;;;;;4989469;28;20289;-66
2022/11/01 11:04:09;;;;;;;;;;;20.40;71.40;;;;;;4972817;28;19938;-66
2022/11/01 11:06:35;;;;;;;;;;;20.40;71.00;;;;;;4972645;28;20009;-65
2022/11/01 11:09:04;;;;;;;;;;;20.40;70.90;;;;;;4972790;28;19930;-66
2022/11/01 11:11:37;;;;;;;;;;;20.40;70.90;;;;;;4973029;28;20271;-66
2022/11/01 11:14:04;;;;;;;;;;;20.40;70.90;;;;;;4973995;28;19930;-65
2022/11/01 11:16:35;;;;;;;;;;;20.40;70.90;;;;;;4973149;28;19926;-65
2022/11/01 11:19:21;;;;;;;;;;;20.40;70.90;;;;;;4972675;28;20476;-65
2022/11/01 11:21:47;;;;;;;;;;;20.40;70.20;;;;;;4971586;28;19929;-65
2022/11/01 11:24:18;;;;;;;;;;;20.30;69.80;;;;;;4972790;28;19926;-64
2022/11/01 11:26:44;;;;;;;;;;;20.30;70.00;;;;;;4972450;28;20033;-65
2022/11/01 11:29:09;;;;;;;;;;;20.30;70.10;;;;;;4957030;28;20008;-64
2022/11/01 11:31:35;;;;;;;;;;;20.30;70.10;;;;;;4972733;28;20024;-64
2022/11/01 11:34:23;;;;;;;;;;;20.30;70.00;;;;;;4973557;28;20398;-64
2022/11/01 11:36:50;;;;;;;;;;;20.30;70.10;;;;;;4974142;28;19933;-65
2022/11/01 11:39:28;;;;;;;;;;;20.30;70.00;;;;;;4974188;28;19949;-65
2022/11/01 11:42:08;;;;;;;;;;;20.30;70.00;;;;;;4987874;28;19933;-65
2022/11/01 11:44:37;;;;;;;;;;;20.30;70.50;;;;;;4979417;28;20290;-65
2022/11/01 11:47:02;;;;;;;;;;;20.30;70.50;;;;;;4971714;28;20037;-66
2022/11/01 11:49:31;;;;;;;;;;;20.30;70.60;;;;;;4954186;29;20452;-66
2022/11/01 11:51:57;;;;;;;;;;;20.40;70.50;;;;;;4954453;28;19982;-66
2022/11/01 11:54:47;;;;;;;;;;;20.40;70.00;;;;;;4969206;28;19933;-66
2022/11/01 11:57:19;;;;;;;;;;;20.40;70.20;;;;;;4957517;28;19926;-66
2022/11/01 11:59:48;;;;;;;;;;;20.40;70.20;;;;;;4958272;28;19930;-67
2022/11/01 12:02:15;;;;;;;;;;;20.40;70.20;;;;;;4973582;28;19927;-67
2022/11/01 12:04:44;;;;;;;;;;;20.40;70.20;;;;;;4958466;28;20263;-67
2022/11/01 12:07:29;;;;;;;;;;;20.40;70.20;;;;;;4964684;28;19954;-66
2022/11/01 12:09:55;;;;;;;;;;;20.40;70.80;;;;;;4983970;28;20020;-66
2022/11/01 12:12:27;;;;;;;;;;;20.40;70.30;;;;;;4970636;28;20020;-65
2022/11/01 12:14:53;;;;;;;;;;;20.40;70.20;;;;;;4976105;28;19933;-66
2022/11/01 12:17:22;;;;;;;;;;;20.40;70.10;;;;;;4968430;28;19926;-66
2022/11/01 12:19:50;;;;;;;;;;;20.40;70.20;;;;;;4976032;28;19933;-66
2022/11/01 12:22:15;;;;;;;;;;;20.30;70.10;;;;;;4975388;28;20012;-66
2022/11/01 12:24:46;;;;;;;;;;;20.40;70.20;;;;;;4976426;28;20365;-66
2022/11/01 12:27:12;;;;;;;;;;;20.30;70.00;;;;;;4983001;28;19926;-67
2022/11/01 12:29:39;;;;;;;;;;;20.40;70.10;;;;;;4982720;28;19959;-68
2022/11/01 12:32:08;;;;;;;;;;;20.30;70.00;;;;;;4978047;28;20136;-66
2022/11/01 12:34:34;;;;;;;;;;;20.30;70.00;;;;;;4966168;28;20434;-65
2022/11/01 12:37:05;;;;;;;;;;;20.40;70.10;;;;;;4987896;28;19926;-65
2022/11/01 12:39:34;;;;;;;;;;;20.30;70.00;;;;;;4991204;28;19927;-66
2022/11/01 12:42:02;;;;;;;;;;;20.30;70.00;;;;;;4976575;28;19933;-66
2022/11/01 12:44:32;;;;;;;;;;;20.30;70.00;;;;;;4975088;28;19926;-64
2022/11/01 12:47:17;;;;;;;;;;;20.30;70.00;;;;;;4990389;28;20013;-64
2022/11/01 12:49:48;;;;;;;;;;;20.30;69.80;;;;;;4972545;28;19926;-64
2022/11/01 12:52:14;;;;;;;;;;;20.40;69.90;;;;;;4974882;28;19927;-65
2022/11/01 12:54:42;;;;;;;;;;;20.40;69.80;;;;;;4975779;28;19941;-64
2022/11/01 12:57:10;;;;;;;;;;;20.40;69.70;;;;;;4976334;28;19930;-64
2022/11/01 12:59:35;;;;;;;;;;;20.40;69.80;;;;;;4990289;28;19930;-65
2022/11/01 13:02:01;;;;;;;;;;;20.40;69.90;;;;;;4976211;28;19933;-65
2022/11/01 13:04:27;;;;;;;;;;;20.40;69.80;;;;;;4974551;28;19937;-65
2022/11/01 13:06:55;;;;;;;;;;;20.50;69.70;;;;;;4973926;28;20012;-64
2022/11/01 13:09:43;;;;;;;;;;;20.50;69.80;;;;;;4989905;28;19926;-64
2022/11/01 13:12:12;;;;;;;;;;;20.50;69.70;;;;;;4972826;28;20029;-65
2022/11/01 13:14:57;;;;;;;;;;;20.50;69.70;;;;;;4970781;28;21324;-65
2022/11/01 13:17:22;;;;;;;;;;;20.50;69.80;;;;;;4972648;28;20021;-65
2022/11/01 13:19:59;;;;;;;;;;;20.50;69.90;;;;;;4971553;28;20013;-66
2022/11/01 13:22:33;;;;;;;;;;;20.60;69.70;;;;;;4972710;28;19937;-65
2022/11/01 13:25:12;;;;;;;;;;;20.60;69.80;;;;;;4974445;28;19932;-66
2022/11/01 13:27:37;;;;;;;;;;;20.60;69.70;;;;;;4974740;28;19934;-64
2022/11/01 13:30:04;;;;;;;;;;;20.60;69.70;;;;;;4975030;28;20317;-64
2022/11/01 13:32:29;;;;;;;;;;;20.60;69.60;;;;;;4975326;28;19934;-64
2022/11/01 13:34:55;;;;;;;;;;;20.60;69.70;;;;;;4974962;28;19930;-66
2022/11/01 13:37:42;;;;;;;;;;;20.70;69.70;;;;;;4975604;28;19926;-64
2022/11/01 13:40:10;;;;;;;;;;;20.70;69.70;;;;;;4975560;28;20378;-64
2022/11/01 13:42:40;;;;;;;;;;;20.70;69.70;;;;;;4974759;28;20025;-64
2022/11/01 13:45:05;;;;;;;;;;;20.70;69.60;;;;;;4973610;28;19926;-65
2022/11/01 13:47:46;;;;;;;;;;;20.80;69.70;;;;;;4973594;28;19930;-65
2022/11/01 13:50:21;;;;;;;;;;;20.80;69.80;;;;;;4975628;28;19926;-64
2022/11/01 13:52:57;;;;;;;;;;;20.80;69.80;;;;;;4973624;28;19937;-64
2022/11/01 13:55:42;;;;;;;;;;;20.80;69.70;;;;;;4980203;28;19933;-64
2022/11/01 13:58:11;;;;;;;;;;;20.90;69.70;;;;;;4975655;28;19926;-63
2022/11/01 14:00:41;;;;;;;;;;;20.90;69.80;;;;;;4971759;28;19930;-64
2022/11/01 14:03:17;;;;;;;;;;;20.90;69.80;;;;;;4974622;28;19926;-64
2022/11/01 14:05:43;;;;;;;;;;;20.90;69.70;;;;;;4964885;28;20781;-64
2022/11/01 14:08:11;;;;;;;;;;;21.00;69.60;;;;;;4982623;28;19989;-64
2022/11/01 14:10:47;;;;;;;;;;;21.00;69.60;;;;;;4990815;28;20004;-64
2022/11/01 14:13:31;;;;;;;;;;;21.00;69.60;;;;;;4974588;28;20366;-65
2022/11/01 14:16:00;;;;;;;;;;;21.00;69.50;;;;;;4974459;28;20386;-67
2022/11/01 14:18:25;;;;;;;;;;;21.00;69.50;;;;;;4974857;28;20286;-65
2022/11/01 14:20:51;;;;;;;;;;;21.00;69.50;;;;;;4973158;28;20370;-65
2022/11/01 14:23:30;;;;;;;;;;;21.00;69.50;;;;;;4973886;28;19930;-62
2022/11/01 14:26:14;;;;;;;;;;;21.00;69.50;;;;;;4975105;28;19933;-66
2022/11/01 14:28:46;;;;;;;;;;;21.00;69.50;;;;;;4975408;28;19926;-65
2022/11/01 14:31:12;;;;;;;;;;;21.00;69.50;;;;;;4973566;28;20028;-65